Portada
METAR-TAF:

METAR-TAF

Aeroports :

Neiva, Colòmbia

latitud: 02-58N, longitud: 075-18W, altitud: 439 m

Observació

L'informe es va fer fa 1 hora i 11 minuts, a les 18:00 UTC
Vent 5 kt del Nord, variant entre Nord/Nord-Oest i Est
Temperatura 32°C
Humitat 49%
Pressió 1011 hPa
Visibilitat 10 km o més
Núvols disperses a una alçada de 3500 ft

METAR: SKNV 211800Z 01005KT 330V100 9999 SCT035 32/20 A2986

Hora: 14:11 (19:11 UTC)


TAF: manca

Observacions i pronòstics meteorològics de més de 4000 aeroports (METAR i TAF).

Les estacions disponibles són els punts grocs i vermells al mapa.

Posi el ratolí al punt desitjat per veure el nom de l'estació.

Feu clic per veure les observacions i els pronòstics meteorològics.

Per canviar el mapa: feu clic els botons verds amb una creu de color negre per apropar; al botó verd amb un guió per allunyar la imatge; o en les fletxes verdes per a mapes adjacents.


METAR-TAF: